createdAt,value
2023-05-14T00:00:50.994Z,12.12
2023-05-14T00:01:50.984Z,12.18
2023-05-14T00:02:50.989Z,12.09
2023-05-14T00:03:50.984Z,12.02
2023-05-14T00:04:50.906Z,11.87
2023-05-14T00:05:50.839Z,11.78
2023-05-14T00:06:50.868Z,11.77
2023-05-14T00:07:50.858Z,11.70
2023-05-14T00:08:50.827Z,11.60
2023-05-14T00:09:50.793Z,11.54
2023-05-14T00:10:50.838Z,11.62
2023-05-14T00:11:50.773Z,11.60
2023-05-14T00:12:50.788Z,11.70
2023-05-14T00:13:50.773Z,11.72
2023-05-14T00:14:50.801Z,11.66
2023-05-14T00:15:50.835Z,11.50
2023-05-14T00:16:50.743Z,11.43
2023-05-14T00:17:50.747Z,11.40
2023-05-14T00:18:50.778Z,11.44
2023-05-14T00:19:50.720Z,11.52
2023-05-14T00:20:50.703Z,11.52
2023-05-14T00:21:50.673Z,11.55
2023-05-14T00:22:50.682Z,11.54
2023-05-14T00:23:50.655Z,11.57
2023-05-14T00:24:50.656Z,11.54
2023-05-14T00:25:50.657Z,11.44
2023-05-14T00:26:50.654Z,11.37
2023-05-14T00:27:50.600Z,11.33
2023-05-14T00:28:50.613Z,11.40
2023-05-14T00:29:50.604Z,11.47
2023-05-14T00:30:50.610Z,11.52
2023-05-14T00:31:50.870Z,11.63
2023-05-14T00:32:50.663Z,11.66
2023-05-14T00:33:50.541Z,11.72
2023-05-14T00:34:50.546Z,11.69
2023-05-14T00:35:50.531Z,11.62
2023-05-14T00:36:50.532Z,11.60
2023-05-14T00:37:50.526Z,11.62
2023-05-14T00:38:50.516Z,11.60
2023-05-14T00:39:50.479Z,11.54
2023-05-14T00:40:50.487Z,11.50
2023-05-14T00:41:50.459Z,11.57
2023-05-14T00:42:50.478Z,11.65
2023-05-14T00:43:50.458Z,11.68
2023-05-14T00:44:50.465Z,11.68
2023-05-14T00:45:50.420Z,11.70
2023-05-14T00:46:50.460Z,11.73
2023-05-14T00:47:50.507Z,11.75
2023-05-14T00:48:50.411Z,11.73
2023-05-14T00:49:50.384Z,11.65
2023-05-14T00:50:50.381Z,11.57
2023-05-14T00:51:50.349Z,11.60
2023-05-14T00:52:50.362Z,11.66
2023-05-14T00:53:50.328Z,11.65
2023-05-14T00:54:50.358Z,11.59
2023-05-14T00:55:50.345Z,11.55
2023-05-14T00:56:50.335Z,11.62
2023-05-14T00:57:50.287Z,11.55
2023-05-14T00:58:50.304Z,11.50
2023-05-14T00:59:50.260Z,11.47
2023-05-14T01:00:50.322Z,11.55
2023-05-14T01:01:50.259Z,11.57
2023-05-14T01:02:50.301Z,11.59
2023-05-14T01:03:50.333Z,11.59
2023-05-14T01:04:50.226Z,11.55
2023-05-14T01:05:50.199Z,11.54
2023-05-14T01:06:50.206Z,11.63
2023-05-14T01:07:50.193Z,11.65
2023-05-14T01:08:50.183Z,11.66
2023-05-14T01:09:50.173Z,11.52
2023-05-14T01:10:50.166Z,11.32
2023-05-14T01:11:50.144Z,11.17
2023-05-14T01:12:50.146Z,11.08
2023-05-14T01:13:50.132Z,11.05
2023-05-14T01:14:50.119Z,11.00
2023-05-14T01:15:50.083Z,10.99
2023-05-14T01:16:50.161Z,10.99
2023-05-14T01:17:50.097Z,11.02
2023-05-14T01:18:50.134Z,11.10
2023-05-14T01:19:50.072Z,11.14
2023-05-14T01:20:50.051Z,11.23
2023-05-14T01:21:50.025Z,11.18
2023-05-14T01:22:50.059Z,11.15
2023-05-14T01:23:50.004Z,11.10
2023-05-14T01:24:50.008Z,11.14
2023-05-14T01:25:50.033Z,11.23
2023-05-14T01:26:49.996Z,11.18
2023-05-14T01:27:49.958Z,11.05
2023-05-14T01:28:49.967Z,10.92
2023-05-14T01:29:49.984Z,10.82
2023-05-14T01:30:49.920Z,10.78
2023-05-14T01:31:49.968Z,10.81
2023-05-14T01:32:49.998Z,10.87
2023-05-14T01:33:49.892Z,10.93
2023-05-14T01:34:49.904Z,10.93
2023-05-14T01:35:49.880Z,10.86
2023-05-14T01:36:49.894Z,10.93
2023-05-14T01:37:49.869Z,10.93
2023-05-14T01:38:49.893Z,10.92
2023-05-14T01:39:49.843Z,10.94
2023-05-14T01:40:49.850Z,10.96
2023-05-14T01:41:49.809Z,10.92
2023-05-14T01:42:49.872Z,10.86
2023-05-14T01:43:49.828Z,10.78
2023-05-14T01:44:49.803Z,10.79
2023-05-14T01:45:49.798Z,10.75
2023-05-14T01:46:49.782Z,10.71
2023-05-14T01:47:49.792Z,10.64
2023-05-14T01:48:49.751Z,10.61
2023-05-14T01:49:49.736Z,10.61
2023-05-14T01:50:49.737Z,10.71
2023-05-14T01:51:49.695Z,10.69
2023-05-14T01:52:49.706Z,10.69
2023-05-14T01:53:49.672Z,10.69
2023-05-14T01:54:49.696Z,10.64
2023-05-14T01:55:49.847Z,10.72
2023-05-14T01:56:49.666Z,10.71
2023-05-14T01:57:49.654Z,10.64
2023-05-14T01:58:49.646Z,10.59
2023-05-14T01:59:49.607Z,10.42
2023-05-14T02:00:49.637Z,10.33
2023-05-14T02:01:49.661Z,10.28
2023-05-14T02:02:49.631Z,10.28
2023-05-14T02:03:49.576Z,10.35
2023-05-14T02:04:49.581Z,10.33
2023-05-14T02:05:49.544Z,10.38
2023-05-14T02:06:49.563Z,10.34
2023-05-14T02:07:49.549Z,10.35
2023-05-14T02:08:49.539Z,10.40
2023-05-14T02:09:49.502Z,10.37
2023-05-14T02:10:49.510Z,10.48
2023-05-14T02:11:49.485Z,10.59
2023-05-14T02:12:49.490Z,10.69
2023-05-14T02:13:49.472Z,10.72
2023-05-14T02:14:49.499Z,10.78
2023-05-14T02:15:49.467Z,10.76
2023-05-14T02:16:49.480Z,10.76
2023-05-14T02:17:49.449Z,10.69
2023-05-14T02:18:49.473Z,10.61
2023-05-14T02:19:49.421Z,10.57
2023-05-14T02:20:49.405Z,10.61
2023-05-14T02:21:49.380Z,10.61
2023-05-14T02:22:49.414Z,10.64
2023-05-14T02:23:49.372Z,10.68
2023-05-14T02:24:49.359Z,10.64
2023-05-14T02:25:49.376Z,10.59
2023-05-14T02:26:49.362Z,10.61
2023-05-14T02:27:49.314Z,10.71
2023-05-14T02:28:49.318Z,10.76
2023-05-14T02:29:49.289Z,10.81
2023-05-14T02:30:49.298Z,10.72
2023-05-14T02:31:49.452Z,10.51
2023-05-14T02:32:49.404Z,10.25
2023-05-14T02:33:49.239Z,10.04
2023-05-14T02:34:49.279Z,9.87
2023-05-14T02:35:49.235Z,9.79
2023-05-14T02:36:49.228Z,9.87
2023-05-14T02:37:49.221Z,9.84
2023-05-14T02:38:49.213Z,9.84
2023-05-14T02:39:49.230Z,9.84
2023-05-14T02:40:49.190Z,9.83
2023-05-14T02:41:49.167Z,9.87
2023-05-14T02:42:49.173Z,10.04
2023-05-14T02:43:49.170Z,10.10
2023-05-14T02:44:49.163Z,10.07
2023-05-14T02:45:49.113Z,10.07
2023-05-14T02:46:49.157Z,9.97
2023-05-14T02:47:49.144Z,9.95
2023-05-14T02:48:49.120Z,9.91
2023-05-14T02:49:49.282Z,9.89
2023-05-14T02:50:49.082Z,9.92
2023-05-14T02:51:49.080Z,9.94
2023-05-14T02:52:49.074Z,9.92
2023-05-14T02:53:49.031Z,9.95
2023-05-14T02:54:49.041Z,9.83
2023-05-14T02:55:49.043Z,9.79
2023-05-14T02:56:49.016Z,9.82
2023-05-14T02:57:48.996Z,9.83
2023-05-14T02:58:49.001Z,9.82
2023-05-14T02:59:48.979Z,9.79
2023-05-14T03:00:48.991Z,9.87
2023-05-14T03:01:48.960Z,9.83
2023-05-14T03:02:49.022Z,9.87
2023-05-14T03:03:48.932Z,9.91
2023-05-14T03:06:16.590Z,9.89
2023-05-14T03:06:21.892Z,9.79
2023-05-14T03:07:21.900Z,9.74
2023-05-14T03:08:21.860Z,9.77
2023-05-14T03:09:21.872Z,9.72
2023-05-14T03:10:22.036Z,9.72
2023-05-14T03:11:21.855Z,9.72
2023-05-14T03:12:21.804Z,9.84
2023-05-14T03:13:21.830Z,9.80
2023-05-14T03:14:21.810Z,9.76
2023-05-14T03:15:21.792Z,9.73
2023-05-14T03:16:21.814Z,9.69
2023-05-14T03:17:21.815Z,9.68
2023-05-14T03:18:21.734Z,9.68
2023-05-14T03:19:21.773Z,9.62
2023-05-14T03:20:21.957Z,9.62
2023-05-14T03:21:21.738Z,9.64
2023-05-14T03:22:21.693Z,9.68
2023-05-14T03:23:21.727Z,9.66
2023-05-14T03:24:21.683Z,9.73
2023-05-14T03:25:21.722Z,9.69
2023-05-14T03:26:21.692Z,9.65
2023-05-14T03:27:21.671Z,9.62
2023-05-14T03:28:21.632Z,9.61
2023-05-14T03:29:21.645Z,9.61
2023-05-14T03:30:22.043Z,9.59
2023-05-14T03:31:21.757Z,9.61
2023-05-14T03:32:21.629Z,9.58
2023-05-14T03:33:21.613Z,9.51
2023-05-14T03:34:21.584Z,9.54
2023-05-14T03:35:21.576Z,9.58
2023-05-14T03:36:21.546Z,9.55
2023-05-14T03:37:21.589Z,9.59
2023-05-14T03:38:21.522Z,9.59
2023-05-14T03:39:21.547Z,9.55
2023-05-14T03:40:21.969Z,9.54
2023-05-14T03:41:21.526Z,9.50
2023-05-14T03:42:21.486Z,9.55
2023-05-14T03:43:21.516Z,9.61
2023-05-14T03:44:21.457Z,9.55
2023-05-14T03:45:21.476Z,9.50
2023-05-14T03:46:21.437Z,9.46
2023-05-14T03:47:21.455Z,9.40
2023-05-14T03:48:21.525Z,9.46
2023-05-14T03:49:21.458Z,9.47
2023-05-14T03:50:21.568Z,9.41
2023-05-14T03:51:21.407Z,9.31
2023-05-14T03:52:21.373Z,9.21
2023-05-14T03:53:21.428Z,9.11
2023-05-14T03:54:21.351Z,9.11
2023-05-14T03:55:21.403Z,9.13
2023-05-14T03:56:21.367Z,9.13
2023-05-14T03:57:21.389Z,9.16
2023-05-14T03:58:21.332Z,9.23
2023-05-14T03:59:21.320Z,9.25
2023-05-14T04:00:21.607Z,9.25
2023-05-14T04:01:21.345Z,9.29
2023-05-14T04:02:21.298Z,9.31
2023-05-14T04:03:21.402Z,9.34
2023-05-14T04:04:21.316Z,9.36
2023-05-14T04:05:21.232Z,9.43
2023-05-14T04:06:21.260Z,9.44
2023-05-14T04:07:21.235Z,9.51
2023-05-14T04:08:21.234Z,9.44
2023-05-14T04:09:21.191Z,9.39
2023-05-14T04:10:21.251Z,9.47
2023-05-14T04:11:21.171Z,9.59
2023-05-14T04:12:21.179Z,9.61
2023-05-14T04:13:21.195Z,9.50
2023-05-14T04:14:21.164Z,9.44
2023-05-14T04:15:21.137Z,9.44
2023-05-14T04:16:21.262Z,9.32
2023-05-14T04:17:21.107Z,9.36
2023-05-14T04:18:21.113Z,9.37
2023-05-14T04:19:21.121Z,9.39
2023-05-14T04:20:21.153Z,9.44
2023-05-14T04:21:21.057Z,9.46
2023-05-14T04:22:21.083Z,9.50
2023-05-14T04:23:21.036Z,9.50
2023-05-14T04:24:21.068Z,9.51
2023-05-14T04:25:21.030Z,9.55
2023-05-14T04:26:21.032Z,9.65
2023-05-14T04:27:21.024Z,9.66
2023-05-14T04:28:21.020Z,9.72
2023-05-14T04:29:20.978Z,9.69
2023-05-14T04:30:21.166Z,9.76
2023-05-14T04:31:21.009Z,9.83
2023-05-14T04:32:21.014Z,9.80
2023-05-14T04:33:20.928Z,9.84
2023-05-14T04:34:20.974Z,9.89
2023-05-14T04:35:23.355Z,9.94
2023-05-14T04:36:20.915Z,9.97
2023-05-14T04:37:20.928Z,9.95
2023-05-14T04:38:20.898Z,9.92
2023-05-14T04:39:20.866Z,9.92
2023-05-14T04:40:20.883Z,9.87
2023-05-14T04:41:20.853Z,9.82
2023-05-14T04:42:20.853Z,9.84
2023-05-14T04:43:20.858Z,9.92
2023-05-14T04:44:20.855Z,9.98
2023-05-14T04:45:20.801Z,10.02
2023-05-14T04:46:20.871Z,10.05
2023-05-14T04:47:20.804Z,10.07
2023-05-14T04:48:20.795Z,10.05
2023-05-14T04:49:20.801Z,10.09
2023-05-14T04:50:20.839Z,10.15
2023-05-14T04:51:20.729Z,10.17
2023-05-14T04:52:20.747Z,10.19
2023-05-14T04:53:20.716Z,10.23
2023-05-14T04:54:20.767Z,10.26
2023-05-14T04:55:20.726Z,10.28
2023-05-14T04:56:20.705Z,10.31
2023-05-14T04:57:20.668Z,10.25
2023-05-14T04:58:20.701Z,10.22
2023-05-14T04:59:20.647Z,10.19
2023-05-14T05:00:20.758Z,10.12
2023-05-14T05:01:20.698Z,10.16
2023-05-14T05:02:20.646Z,10.13
2023-05-14T05:03:20.762Z,10.13
2023-05-14T05:04:20.635Z,10.20
2023-05-14T05:05:20.588Z,10.22
2023-05-14T05:06:20.628Z,10.30
2023-05-14T05:07:20.580Z,10.35
2023-05-14T05:08:20.583Z,10.42
2023-05-14T05:09:20.580Z,10.49
2023-05-14T05:10:20.582Z,10.68
2023-05-14T05:11:20.529Z,11.02
2023-05-14T05:12:20.536Z,11.47
2023-05-14T05:13:20.534Z,11.88
2023-05-14T05:14:20.535Z,12.35
2023-05-14T05:15:20.489Z,12.72
2023-05-14T05:16:20.512Z,13.08
2023-05-14T05:17:20.526Z,13.44
2023-05-14T05:18:20.460Z,13.85
2023-05-14T05:19:26.557Z,14.17
2023-05-14T05:20:20.499Z,14.17
2023-05-14T05:21:20.426Z,14.18
2023-05-14T05:22:20.431Z,13.96
2023-05-14T05:23:20.400Z,13.78
2023-05-14T05:24:20.471Z,13.89
2023-05-14T05:25:20.410Z,14.04
2023-05-14T05:26:20.392Z,14.12
2023-05-14T05:27:20.360Z,14.04
2023-05-14T05:28:20.363Z,13.86
2023-05-14T05:29:20.350Z,13.72
2023-05-14T05:30:20.386Z,13.79
2023-05-14T05:31:20.380Z,14.25
2023-05-14T05:32:20.334Z,14.58
2023-05-14T05:33:20.298Z,14.79
2023-05-14T05:34:20.302Z,14.99
2023-05-14T05:35:20.264Z,15.18
2023-05-14T05:36:20.281Z,15.40
2023-05-14T05:37:20.274Z,15.55
2023-05-14T05:38:20.257Z,15.64
2023-05-14T05:39:20.224Z,15.70
2023-05-14T05:40:20.240Z,15.76
2023-05-14T05:41:20.201Z,15.67
2023-05-14T05:42:20.226Z,15.55
2023-05-14T05:43:20.201Z,15.61
2023-05-14T05:44:20.192Z,15.62
2023-05-14T05:45:20.178Z,15.70
2023-05-14T05:46:20.229Z,15.77
2023-05-14T05:47:20.150Z,15.82
2023-05-14T05:48:20.145Z,15.92
2023-05-14T05:49:20.142Z,16.05
2023-05-14T05:50:20.228Z,16.17
2023-05-14T05:51:20.086Z,16.35
2023-05-14T05:52:20.110Z,16.39
2023-05-14T05:53:20.085Z,16.39
2023-05-14T05:54:20.084Z,16.32
2023-05-14T05:55:20.086Z,16.28
2023-05-14T05:56:20.065Z,16.05
2023-05-14T05:57:20.032Z,15.79
2023-05-14T05:58:20.051Z,15.75
2023-05-14T05:59:20.008Z,15.70
2023-05-14T06:00:20.031Z,15.70
2023-05-14T06:01:20.010Z,15.68
2023-05-14T06:02:20.086Z,15.59
2023-05-14T06:03:20.008Z,15.52
2023-05-14T06:04:19.974Z,15.51
2023-05-14T06:05:20.032Z,15.55
2023-05-14T06:06:19.957Z,15.62
2023-05-14T06:07:19.941Z,15.57
2023-05-14T06:08:19.940Z,15.52
2023-05-14T06:09:19.895Z,15.55
2023-05-14T06:10:19.909Z,15.61
2023-05-14T06:11:19.878Z,15.58
2023-05-14T06:12:19.891Z,15.52
2023-05-14T06:13:19.886Z,15.44
2023-05-14T06:14:19.867Z,15.31
2023-05-14T06:15:19.856Z,15.14
2023-05-14T06:16:19.893Z,14.94
2023-05-14T06:17:19.852Z,14.70
2023-05-14T06:18:19.822Z,14.58
2023-05-14T06:19:19.934Z,14.47
2023-05-14T06:20:19.802Z,14.36
2023-05-14T06:21:19.836Z,14.33
2023-05-14T06:22:19.778Z,14.28
2023-05-14T06:23:19.748Z,14.28
2023-05-14T06:24:19.758Z,14.25
2023-05-14T06:25:19.746Z,14.15
2023-05-14T06:26:19.955Z,14.10
2023-05-14T06:27:19.705Z,14.11
2023-05-14T06:28:19.731Z,14.14
2023-05-14T06:29:19.690Z,14.22
2023-05-14T06:30:19.707Z,14.25
2023-05-14T06:31:19.719Z,14.33
2023-05-14T06:32:19.748Z,14.43
2023-05-14T06:33:20.630Z,14.51
2023-05-14T06:34:19.661Z,14.59
2023-05-14T06:35:19.626Z,14.69
2023-05-14T06:36:19.636Z,14.73
2023-05-14T06:37:19.648Z,14.99
2023-05-14T06:38:19.621Z,15.07
2023-05-14T06:39:19.571Z,15.14
2023-05-14T06:40:19.584Z,15.22
2023-05-14T06:41:19.563Z,15.40
2023-05-14T06:42:19.573Z,15.52
2023-05-14T06:43:19.649Z,15.59
2023-05-14T06:44:19.554Z,15.82
2023-05-14T06:45:19.531Z,15.90
2023-05-14T06:46:19.525Z,15.91
2023-05-14T06:47:19.488Z,15.94
2023-05-14T06:48:19.656Z,16.08
2023-05-14T06:49:19.497Z,16.23
2023-05-14T06:50:19.484Z,16.35
2023-05-14T06:51:19.462Z,16.38
2023-05-14T06:52:19.456Z,16.42
2023-05-14T06:53:19.429Z,16.50
2023-05-14T06:54:19.442Z,16.49
2023-05-14T06:55:19.432Z,16.20
2023-05-14T06:56:19.422Z,15.83
2023-05-14T06:57:19.380Z,15.75
2023-05-14T06:58:19.404Z,15.59
2023-05-14T06:59:19.367Z,15.54
2023-05-14T07:00:19.377Z,15.58
2023-05-14T07:01:19.385Z,15.57
2023-05-14T07:02:19.353Z,15.59
2023-05-14T07:03:19.319Z,15.70
2023-05-14T07:04:19.432Z,15.75
2023-05-14T07:05:19.298Z,15.84
2023-05-14T07:06:19.309Z,16.00
2023-05-14T07:07:19.309Z,16.02
2023-05-14T07:08:19.290Z,16.01
2023-05-14T07:09:19.248Z,16.05
2023-05-14T07:10:19.263Z,16.24
2023-05-14T07:11:19.275Z,16.39
2023-05-14T07:12:19.253Z,16.53
2023-05-14T07:13:19.223Z,16.66
2023-05-14T07:14:19.217Z,16.79
2023-05-14T07:15:19.199Z,16.96
2023-05-14T07:16:19.197Z,17.09
2023-05-14T07:17:19.213Z,17.26
2023-05-14T07:18:19.186Z,17.34
2023-05-14T07:19:19.252Z,17.44
2023-05-14T07:20:19.159Z,17.45
2023-05-14T07:21:19.158Z,17.57
2023-05-14T07:22:19.142Z,17.70
2023-05-14T07:23:20.046Z,17.76
2023-05-14T07:24:19.132Z,17.86
2023-05-14T07:25:19.098Z,17.94
2023-05-14T07:26:19.096Z,18.08
2023-05-14T07:27:19.064Z,18.26
2023-05-14T07:28:19.076Z,18.49
2023-05-14T07:29:19.032Z,18.59
2023-05-14T07:30:19.063Z,18.80
2023-05-14T07:31:19.077Z,19.00
2023-05-14T07:32:19.023Z,19.15
2023-05-14T07:33:19.005Z,19.29
2023-05-14T07:34:19.017Z,19.30
2023-05-14T07:35:18.970Z,19.37
2023-05-14T07:36:19.108Z,19.41
2023-05-14T07:37:18.973Z,19.54
2023-05-14T07:38:18.965Z,19.64
2023-05-14T07:39:18.925Z,19.69
2023-05-14T07:40:18.936Z,19.84
2023-05-14T07:41:18.909Z,19.92
2023-05-14T07:42:31.638Z,19.89
2023-05-14T07:43:18.902Z,19.91
2023-05-14T07:44:18.894Z,20.04
2023-05-14T07:45:18.852Z,20.19
2023-05-14T07:46:18.880Z,20.24
2023-05-14T07:47:18.866Z,20.29
2023-05-14T07:48:18.873Z,20.34
2023-05-14T07:49:18.882Z,20.34
2023-05-14T07:50:18.848Z,20.31
2023-05-14T07:51:18.852Z,20.40
2023-05-14T07:52:18.822Z,20.44
2023-05-14T07:53:18.781Z,20.47
2023-05-14T07:54:18.784Z,20.52
2023-05-14T07:55:18.773Z,20.65
2023-05-14T07:56:18.760Z,20.65
2023-05-14T07:57:18.734Z,20.63
2023-05-14T07:58:18.744Z,20.60
2023-05-14T07:59:18.707Z,20.63
2023-05-14T08:00:18.792Z,20.72
2023-05-14T08:01:18.721Z,20.81
2023-05-14T08:02:18.752Z,20.84
2023-05-14T08:03:18.785Z,20.88
2023-05-14T08:04:18.814Z,20.92
2023-05-14T08:05:18.653Z,20.81
2023-05-14T08:06:18.654Z,20.84
2023-05-14T08:07:18.642Z,20.97
2023-05-14T08:08:18.637Z,20.97
2023-05-14T08:09:18.610Z,20.99
2023-05-14T08:10:18.622Z,20.78
2023-05-14T08:11:18.661Z,20.87
2023-05-14T08:12:18.602Z,20.93
2023-05-14T08:13:18.633Z,20.84
2023-05-14T08:14:18.558Z,20.47
2023-05-14T08:15:18.559Z,20.41
2023-05-14T08:16:18.549Z,20.26
2023-05-14T08:17:18.563Z,20.34
2023-05-14T08:18:18.531Z,20.34
2023-05-14T08:19:18.649Z,20.44
2023-05-14T08:20:18.486Z,20.58
2023-05-14T08:21:18.496Z,20.59
2023-05-14T08:22:18.465Z,20.72
2023-05-14T08:23:18.537Z,21.09
2023-05-14T08:24:18.439Z,21.33
2023-05-14T08:25:18.466Z,21.60
2023-05-14T08:26:18.425Z,21.60
2023-05-14T08:27:18.435Z,21.73
2023-05-14T08:28:18.405Z,21.92
2023-05-14T08:29:18.417Z,21.98
2023-05-14T08:30:18.389Z,22.20
2023-05-14T08:31:18.483Z,22.50
2023-05-14T08:32:23.307Z,22.83
2023-05-14T08:33:18.374Z,23.03
2023-05-14T08:34:18.351Z,23.17
2023-05-14T08:35:18.352Z,23.20
2023-05-14T08:36:18.322Z,23.18
2023-05-14T08:37:18.335Z,23.24
2023-05-14T08:38:18.321Z,23.20
2023-05-14T08:39:18.318Z,23.24
2023-05-14T08:40:18.308Z,23.34
2023-05-14T08:41:18.286Z,23.21
2023-05-14T08:42:18.260Z,23.34
2023-05-14T08:43:18.310Z,23.58
2023-05-14T08:44:18.230Z,23.87
2023-05-14T08:45:18.254Z,24.02
2023-05-14T08:46:18.222Z,24.11
2023-05-14T08:47:18.231Z,24.32
2023-05-14T08:48:18.260Z,24.47
2023-05-14T08:49:18.226Z,24.60
2023-05-14T08:50:18.933Z,24.63
2023-05-14T08:51:18.188Z,24.57
2023-05-14T08:52:18.175Z,24.57
2023-05-14T08:53:18.165Z,24.60
2023-05-14T08:54:18.205Z,24.70
2023-05-14T08:55:18.156Z,24.88
2023-05-14T08:56:18.106Z,24.92
2023-05-14T08:57:18.112Z,24.91
2023-05-14T08:58:18.087Z,24.92
2023-05-14T08:59:18.094Z,25.06
2023-05-14T09:00:18.065Z,25.31
2023-05-14T09:01:18.101Z,25.46
2023-05-14T09:02:18.040Z,25.66
2023-05-14T09:03:18.072Z,25.80
2023-05-14T09:04:18.052Z,25.75
2023-05-14T09:05:18.057Z,25.90
2023-05-14T09:06:17.992Z,25.87
2023-05-14T09:07:18.034Z,26.02
2023-05-14T09:08:17.969Z,26.29
2023-05-14T09:09:17.993Z,26.56
2023-05-14T09:10:17.952Z,26.83
2023-05-14T09:11:17.988Z,27.17
2023-05-14T09:12:17.934Z,27.25
2023-05-14T09:13:17.960Z,27.39
2023-05-14T09:14:17.929Z,27.36
2023-05-14T09:15:17.930Z,27.51
2023-05-14T09:16:17.948Z,27.54
2023-05-14T09:17:17.925Z,27.39
2023-05-14T09:18:17.887Z,27.29
2023-05-14T09:19:17.989Z,27.03
2023-05-14T09:20:17.868Z,27.27
2023-05-14T09:21:17.882Z,27.65
2023-05-14T09:22:17.844Z,27.18
2023-05-14T09:23:17.848Z,27.42
2023-05-14T09:24:17.812Z,27.82
2023-05-14T09:25:17.872Z,27.93
2023-05-14T09:26:17.821Z,27.95
2023-05-14T09:27:17.807Z,27.58
2023-05-14T09:28:17.768Z,27.07
2023-05-14T09:29:17.783Z,26.85
2023-05-14T09:30:17.756Z,26.41
2023-05-14T09:31:17.871Z,25.48
2023-05-14T09:32:17.729Z,25.25
2023-05-14T09:33:17.755Z,25.38
2023-05-14T09:34:17.941Z,25.65
2023-05-14T09:35:18.054Z,26.10
2023-05-14T09:36:17.688Z,26.53
2023-05-14T09:37:17.728Z,27.00
2023-05-14T09:38:17.669Z,27.45
2023-05-14T09:39:17.693Z,27.73
2023-05-14T09:40:17.651Z,27.80
2023-05-14T09:41:17.659Z,27.68
2023-05-14T09:42:17.629Z,27.85
2023-05-14T09:43:17.653Z,27.82
2023-05-14T09:44:17.642Z,28.05
2023-05-14T09:45:17.621Z,28.20
2023-05-14T09:46:17.580Z,28.30
2023-05-14T09:47:17.634Z,28.45
2023-05-14T09:48:17.635Z,28.59
2023-05-14T09:49:17.609Z,28.67
2023-05-14T09:50:17.576Z,28.57
2023-05-14T09:51:17.552Z,28.49
2023-05-14T09:52:17.546Z,28.63
2023-05-14T09:53:17.541Z,28.69
2023-05-14T09:54:17.556Z,28.82
2023-05-14T09:55:17.545Z,28.72
2023-05-14T09:56:17.488Z,28.45
2023-05-14T09:57:17.489Z,28.27
2023-05-14T09:58:17.457Z,28.26
2023-05-14T09:59:17.473Z,28.00
2023-05-14T10:00:17.438Z,26.96
2023-05-14T10:01:17.517Z,26.95
2023-05-14T10:02:17.408Z,26.51
2023-05-14T10:03:19.860Z,26.75
2023-05-14T10:04:17.421Z,27.22
2023-05-14T10:05:17.421Z,27.52
2023-05-14T10:06:17.375Z,27.74
2023-05-14T10:07:17.412Z,27.77
2023-05-14T10:08:17.356Z,27.70
2023-05-14T10:09:17.373Z,27.35
2023-05-14T10:10:17.348Z,26.40
2023-05-14T10:11:17.351Z,25.68
2023-05-14T10:12:17.332Z,25.62
2023-05-14T10:13:17.346Z,26.09
2023-05-14T10:14:17.291Z,26.56
2023-05-14T10:15:17.312Z,26.26
2023-05-14T10:16:17.271Z,26.81
2023-05-14T10:17:17.322Z,26.48
2023-05-14T10:18:17.277Z,25.78
2023-05-14T10:19:17.378Z,25.16
2023-05-14T10:20:17.228Z,24.68
2023-05-14T10:21:17.264Z,24.76
2023-05-14T10:22:17.205Z,24.40
2023-05-14T10:23:17.220Z,23.58
2023-05-14T10:24:17.202Z,23.31
2023-05-14T10:25:17.225Z,24.10
2023-05-14T10:26:17.167Z,24.80
2023-05-14T10:27:17.193Z,25.66
2023-05-14T10:28:17.142Z,26.41
2023-05-14T10:29:17.158Z,26.93
2023-05-14T10:30:17.132Z,27.55
2023-05-14T10:31:17.218Z,27.65
2023-05-14T10:32:17.133Z,27.98
2023-05-14T10:33:17.150Z,28.01
2023-05-14T10:34:17.113Z,28.10
2023-05-14T10:35:17.127Z,28.11
2023-05-14T10:36:17.078Z,28.25
2023-05-14T10:37:17.110Z,28.59
2023-05-14T10:38:17.096Z,28.74
2023-05-14T10:39:17.060Z,29.10
2023-05-14T10:40:17.020Z,29.35
2023-05-14T10:41:17.045Z,28.98
2023-05-14T10:42:17.006Z,28.84
2023-05-14T10:43:17.046Z,28.85
2023-05-14T10:44:16.990Z,28.91
2023-05-14T10:45:17.016Z,29.10
2023-05-14T10:46:17.006Z,28.78
2023-05-14T10:47:16.992Z,28.72
2023-05-14T10:48:17.006Z,28.27
2023-05-14T10:49:25.329Z,27.87
2023-05-14T10:50:16.926Z,28.05
2023-05-14T10:51:17.035Z,28.26
2023-05-14T10:52:16.912Z,28.41
2023-05-14T10:53:16.912Z,27.63
2023-05-14T10:54:16.888Z,27.47
2023-05-14T10:55:16.991Z,27.36
2023-05-14T10:56:16.866Z,27.65
2023-05-14T10:57:16.877Z,27.92
2023-05-14T10:58:16.838Z,28.27
2023-05-14T10:59:16.867Z,28.59
2023-05-14T11:00:16.830Z,28.67
2023-05-14T11:01:16.860Z,28.94
2023-05-14T11:02:16.841Z,28.85
2023-05-14T11:03:16.869Z,28.78
2023-05-14T11:04:16.855Z,28.88
2023-05-14T11:05:16.837Z,29.04
2023-05-14T11:06:16.799Z,28.89
2023-05-14T11:07:16.791Z,28.62
2023-05-14T11:08:16.749Z,28.41
2023-05-14T11:09:16.784Z,27.85
2023-05-14T11:10:16.797Z,27.12
2023-05-14T11:11:16.742Z,26.97
2023-05-14T11:12:16.718Z,26.83
2023-05-14T11:13:16.742Z,26.83
2023-05-14T11:14:16.696Z,27.14
2023-05-14T11:15:16.745Z,27.51
2023-05-14T11:16:23.190Z,27.93
2023-05-14T11:17:16.745Z,28.04
2023-05-14T11:18:16.701Z,28.08
2023-05-14T11:19:16.811Z,28.39
2023-05-14T11:20:16.664Z,28.67
2023-05-14T11:21:16.674Z,29.10
2023-05-14T11:22:16.610Z,29.36
2023-05-14T11:23:16.616Z,29.60
2023-05-14T11:24:16.599Z,29.02
2023-05-14T11:25:16.629Z,28.59
2023-05-14T11:26:16.804Z,28.45
2023-05-14T11:27:16.590Z,28.66
2023-05-14T11:28:16.560Z,28.88
2023-05-14T11:29:16.562Z,29.17
2023-05-14T11:30:16.572Z,29.32
2023-05-14T11:31:16.586Z,29.17
2023-05-14T11:32:16.516Z,28.96
2023-05-14T11:33:16.552Z,28.93
2023-05-14T11:34:16.505Z,28.39
2023-05-14T11:35:16.506Z,28.42
2023-05-14T11:36:16.486Z,28.07
2023-05-14T11:37:16.528Z,28.12
2023-05-14T11:38:16.455Z,28.29
2023-05-14T11:39:16.462Z,28.51
2023-05-14T11:40:16.543Z,28.69
2023-05-14T11:41:16.457Z,28.96
2023-05-14T11:42:16.419Z,29.12
2023-05-14T11:43:16.452Z,29.05
2023-05-14T11:44:16.403Z,28.91
2023-05-14T11:45:16.403Z,28.29
2023-05-14T11:46:16.399Z,27.70
2023-05-14T11:47:16.394Z,27.14
2023-05-14T11:48:16.357Z,26.51
2023-05-14T11:49:16.532Z,26.00
2023-05-14T11:50:16.393Z,25.69
2023-05-14T11:51:16.349Z,25.31
2023-05-14T11:52:16.354Z,24.86
2023-05-14T11:53:16.334Z,24.76
2023-05-14T11:54:16.304Z,24.76
2023-05-14T11:55:16.345Z,24.91
2023-05-14T11:56:16.313Z,24.91
2023-05-14T11:57:16.360Z,25.68
2023-05-14T11:58:16.248Z,26.28
2023-05-14T11:59:16.262Z,26.93
2023-05-14T12:00:16.283Z,27.27
2023-05-14T12:01:16.372Z,27.42
2023-05-14T12:02:16.232Z,27.52
2023-05-14T12:03:16.378Z,27.71
2023-05-14T12:04:16.214Z,27.25
2023-05-14T12:05:16.214Z,26.73
2023-05-14T12:06:16.151Z,25.60
2023-05-14T12:07:16.186Z,25.40
2023-05-14T12:08:16.146Z,25.66
2023-05-14T12:09:16.146Z,26.19
2023-05-14T12:10:16.125Z,26.62
2023-05-14T12:11:16.130Z,26.84
2023-05-14T12:12:16.106Z,26.85
2023-05-14T12:13:16.370Z,27.11
2023-05-14T12:14:16.070Z,27.25
2023-05-14T12:15:16.103Z,27.33
2023-05-14T12:16:16.157Z,27.55
2023-05-14T12:17:16.067Z,27.86
2023-05-14T12:18:24.141Z,28.17
2023-05-14T12:19:16.264Z,28.45
2023-05-14T12:20:16.006Z,28.64
2023-05-14T12:21:16.034Z,28.78
2023-05-14T12:22:15.988Z,28.84
2023-05-14T12:23:15.996Z,28.69
2023-05-14T12:24:15.986Z,28.60
2023-05-14T12:25:16.032Z,28.63
2023-05-14T12:26:15.948Z,28.35
2023-05-14T12:27:15.957Z,27.74
2023-05-14T12:28:15.950Z,26.92
2023-05-14T12:29:15.925Z,26.31
2023-05-14T12:30:21.656Z,26.44
2023-05-14T12:31:15.983Z,26.92
2023-05-14T12:32:15.914Z,27.10
2023-05-14T12:33:15.883Z,27.35
2023-05-14T12:34:15.892Z,27.68
2023-05-14T12:35:15.864Z,27.77
2023-05-14T12:36:21.635Z,27.95
2023-05-14T12:37:15.855Z,28.07
2023-05-14T12:38:15.863Z,28.26
2023-05-14T12:39:15.828Z,28.39
2023-05-14T12:40:15.839Z,27.30
2023-05-14T12:41:15.819Z,26.90
2023-05-14T12:42:15.821Z,26.84
2023-05-14T12:43:15.789Z,27.10
2023-05-14T12:44:15.889Z,27.25
2023-05-14T12:45:15.761Z,27.49
2023-05-14T12:46:15.763Z,27.73
2023-05-14T12:47:15.855Z,27.86
2023-05-14T12:48:15.764Z,28.10
2023-05-14T12:49:15.732Z,28.14
2023-05-14T12:50:15.722Z,28.08
2023-05-14T12:51:15.708Z,28.10
2023-05-14T12:53:15.693Z,28.05
2023-05-14T12:54:15.749Z,28.20
2023-05-14T12:55:15.682Z,28.10
2023-05-14T12:56:15.682Z,27.90
2023-05-14T12:57:15.636Z,27.90
2023-05-14T12:58:15.650Z,27.70